Time;durP1;ratioP1;P1;durP2;ratioP2;P2;SDS_P1;SDS_P2;PMS_P1;PMS_P2;Temp;Humidity;BMP_temperature;BMP_pressure;BME280_temperature;BME280_humidity;BME280_pressure;Samples;Min_cycle;Max_cycle;Signal;HPM_P1;HPM_P2
2022/10/27 00:00:37;;;;;;;11.57;5.95;;;;;;;11.32;100.00;100230.16;1765226;81;20966;-73
2022/10/27 00:03:04;;;;;;;8.30;5.62;;;;;;;11.30;100.00;100222.86;1756481;81;21082;-74
2022/10/27 00:05:30;;;;;;;8.10;5.85;;;;;;;11.29;100.00;100239.55;1753198;81;21078;-74
2022/10/27 00:07:57;;;;;;;6.65;5.45;;;;;;;11.29;100.00;100230.64;1749776;81;21190;-75
2022/10/27 00:10:23;;;;;;;9.38;6.62;;;;;;;11.32;100.00;100239.58;1720709;83;20921;-75
2022/10/27 00:12:51;;;;;;;8.75;7.17;;;;;;;11.34;100.00;100234.78;1736888;81;21056;-75
2022/10/27 00:15:17;;;;;;;8.95;5.70;;;;;;;11.34;100.00;100235.60;1740613;81;21056;-74
2022/10/27 00:17:44;;;;;;;8.18;6.00;;;;;;;11.34;100.00;100242.86;1708083;83;21520;-75
2022/10/27 00:20:11;;;;;;;9.08;6.58;;;;;;;11.31;100.00;100242.01;1708229;83;21575;-76
2022/10/27 00:22:38;;;;;;;7.55;6.83;;;;;;;11.29;100.00;100236.03;1707918;83;20897;-76
2022/10/27 00:25:05;;;;;;;9.68;5.70;;;;;;;11.27;100.00;100238.17;1707245;81;21040;-75
2022/10/27 00:27:32;;;;;;;7.12;5.85;;;;;;;11.28;100.00;100246.51;1706777;82;21030;-76
2022/10/27 00:30:00;;;;;;;6.00;5.35;;;;;;;11.28;100.00;100243.30;1708241;81;21094;-76
2022/10/27 00:32:26;;;;;;;11.90;7.37;;;;;;;11.29;100.00;100254.36;1733943;82;21211;-74
2022/10/27 00:34:53;;;;;;;8.93;6.45;;;;;;;11.30;100.00;100249.79;1739842;81;20985;-80
2022/10/27 00:37:21;;;;;;;9.55;6.62;;;;;;;11.29;100.00;100246.28;1750537;81;21587;-80
2022/10/27 00:39:47;;;;;;;8.30;7.12;;;;;;;11.28;100.00;100247.33;1750046;81;21024;-82
2022/10/27 00:42:13;;;;;;;8.43;6.17;;;;;;;11.28;100.00;100239.78;1780431;80;21020;-76
2022/10/27 00:44:45;;;;;;;7.28;6.58;;;;;;;11.28;100.00;100242.47;1713793;81;21302;-76
2022/10/27 00:47:27;;;;;;;6.90;6.20;;;;;;;11.27;100.00;100251.63;1753633;81;20936;-74
2022/10/27 00:50:08;;;;;;;10.93;6.45;;;;;;;11.24;100.00;100248.88;1732551;82;21523;-75
2022/10/27 00:52:56;;;;;;;8.70;7.37;;;;;;;11.25;100.00;100245.13;1746101;81;21014;-73
2022/10/27 00:55:32;;;;;;;13.10;7.53;;;;;;;11.25;100.00;100251.86;1767686;81;21043;-75
2022/10/27 00:58:07;;;;;;;9.30;7.60;;;;;;;11.24;100.00;100251.56;1763995;81;20924;-75
2022/10/27 01:00:38;;;;;;;8.58;7.67;;;;;;;11.23;100.00;100253.14;1764092;81;21540;-76
2022/10/27 01:03:05;;;;;;;7.80;6.50;;;;;;;11.23;100.00;100258.00;1747351;80;21039;-75
2022/10/27 01:05:32;;;;;;;9.78;8.03;;;;;;;11.23;100.00;100265.26;1765263;80;21492;-74
2022/10/27 01:08:01;;;;;;;7.47;6.72;;;;;;;11.23;100.00;100258.00;1778002;80;21485;-75
2022/10/27 01:10:27;;;;;;;10.05;8.00;;;;;;;11.24;100.00;100260.98;1777953;80;21339;-77
2022/10/27 01:12:55;;;;;;;9.78;8.05;;;;;;;11.27;100.00;100258.36;1738224;80;21040;-76
2022/10/27 01:15:27;;;;;;;8.33;7.25;;;;;;;11.27;100.00;100262.40;1777307;79;20960;-74
2022/10/27 01:18:21;;;;;;;7.85;7.20;;;;;;;11.26;100.00;100262.11;1752773;81;21015;-74
2022/10/27 01:21:10;;;;;;;8.70;7.80;;;;;;;11.26;100.00;100266.97;1764487;81;21540;-75
2022/10/27 01:24:18;;;;;;;11.75;8.23;;;;;;;11.24;100.00;100269.59;1722716;81;21035;-75
2022/10/27 01:26:57;;;;;;;9.45;7.03;;;;;;;11.24;100.00;100278.49;1764269;81;22283;-75
2022/10/27 01:30:02;;;;;;;16.82;8.63;;;;;;;11.23;100.00;100282.76;1744506;80;26744;-75
2022/10/27 01:32:46;;;;;;;9.53;8.38;;;;;;;11.23;100.00;100274.69;1770445;81;20972;-76
2022/10/27 01:35:36;;;;;;;14.85;9.70;;;;;;;11.23;100.00;100279.55;1756377;80;21016;-75
2022/10/27 01:38:28;;;;;;;12.58;8.50;;;;;;;11.24;100.00;100281.71;1724563;81;22018;-75
2022/10/27 01:41:21;;;;;;;10.60;7.22;;;;;;;11.24;100.00;100287.91;1735718;81;21098;-74
2022/10/27 01:43:48;;;;;;;11.65;7.75;;;;;;;11.22;100.00;100300.00;1725836;81;21080;-75
2022/10/27 01:46:14;;;;;;;8.38;7.42;;;;;;;11.18;100.00;100292.91;1715967;82;21017;-74
2022/10/27 01:48:41;;;;;;;11.90;8.20;;;;;;;11.17;100.00;100296.67;1726682;82;21028;-73
2022/10/27 01:51:08;;;;;;;9.28;7.12;;;;;;;11.19;100.00;100300.45;1730187;82;21791;-74
2022/10/27 01:53:40;;;;;;;7.35;6.60;;;;;;;11.21;100.00;100304.56;1729914;82;21297;-74
2022/10/27 01:56:32;;;;;;;13.43;8.55;;;;;;;11.20;100.00;100305.61;1730955;81;21067;-74
2022/10/27 01:59:04;;;;;;;11.70;7.00;;;;;;;11.20;100.00;100298.88;1724380;81;20955;-74
2022/10/27 02:02:09;;;;;;;11.48;7.95;;;;;;;11.19;100.00;100308.53;1717657;83;21094;-73
2022/10/27 02:04:54;;;;;;;10.20;8.20;;;;;;;11.20;100.00;100310.17;1705190;82;21845;-74
2022/10/27 02:08:01;;;;;;;16.95;8.78;;;;;;;11.25;100.00;100326.44;1685821;84;21032;-74
2022/10/27 02:10:51;;;;;;;12.93;8.70;;;;;;;11.24;100.00;100311.33;1717565;81;21031;-73
2022/10/27 02:13:18;;;;;;;12.93;7.70;;;;;;;11.23;100.00;100323.97;1721307;81;20979;-75
2022/10/27 02:15:49;;;;;;;10.32;8.08;;;;;;;11.20;100.00;100327.67;1722573;81;21042;-75
2022/10/27 02:18:19;;;;;;;16.85;9.80;;;;;;;11.16;100.00;100319.27;1696140;83;21848;-73
2022/10/27 02:20:50;;;;;;;10.98;7.83;;;;;;;11.17;100.00;100322.78;1719546;81;20979;-73
2022/10/27 02:23:18;;;;;;;9.55;8.60;;;;;;;11.19;100.00;100333.59;1721596;83;20935;-73
2022/10/27 02:25:53;;;;;;;10.23;7.62;;;;;;;11.20;100.00;100319.59;1722129;81;21011;-74
2022/10/27 02:28:25;;;;;;;11.95;6.83;;;;;;;11.21;100.00;100319.38;1717113;83;21014;-73
2022/10/27 02:30:52;;;;;;;12.85;8.95;;;;;;;11.23;100.00;100323.97;1715182;83;21806;-73
2022/10/27 02:33:19;;;;;;;9.55;8.48;;;;;;;11.22;100.00;100326.37;1715247;83;22231;-73
2022/10/27 02:35:46;;;;;;;8.83;7.90;;;;;;;11.20;100.00;100323.64;1710895;81;21072;-76
2022/10/27 02:38:12;;;;;;;13.30;8.58;;;;;;;11.16;100.00;100338.64;1730563;82;21000;-74
2022/10/27 02:40:39;;;;;;;9.20;7.67;;;;;;;11.12;100.00;100338.30;1719515;82;20985;-74
2022/10/27 02:43:05;;;;;;;8.50;7.65;;;;;;;11.10;100.00;100336.36;1750365;80;21224;-73
2022/10/27 02:45:34;;;;;;;10.58;7.85;;;;;;;11.08;100.00;100344.40;1709480;82;21076;-72
2022/10/27 02:48:00;;;;;;;11.95;8.03;;;;;;;11.07;100.00;100340.88;1686207;84;21060;-74
2022/10/27 02:50:26;;;;;;;9.80;7.95;;;;;;;11.09;100.00;100345.48;1685336;85;21062;-73
2022/10/27 02:52:53;;;;;;;8.88;7.45;;;;;;;11.10;100.00;100351.69;1697830;84;21048;-74
2022/10/27 02:55:19;;;;;;;9.05;8.03;;;;;;;11.12;100.00;100353.11;1721787;81;21176;-74
2022/10/27 02:57:46;;;;;;;10.38;7.50;;;;;;;11.11;100.00;100347.42;1713739;81;21000;-73
2022/10/27 03:00:15;;;;;;;10.53;7.17;;;;;;;11.12;100.00;100352.29;1701105;82;21091;-74
2022/10/27 03:02:41;;;;;;;10.65;8.15;;;;;;;11.12;100.00;100354.45;1690387;83;21043;-73
2022/10/27 03:05:08;;;;;;;8.30;7.40;;;;;;;11.10;100.00;100358.42;1704624;82;21068;-74
2022/10/27 03:07:36;;;;;;;16.17;7.72;;;;;;;11.09;100.00;100350.88;1697721;83;21772;-73
2022/10/27 03:10:03;;;;;;;9.00;7.72;;;;;;;11.10;100.00;100350.34;1698024;84;21533;-75
2022/10/27 03:12:30;;;;;;;7.33;6.28;;;;;;;11.07;100.00;100351.66;1658800;84;21056;-74
2022/10/27 03:14:56;;;;;;;13.45;7.80;;;;;;;11.05;100.00;100346.20;1709466;82;21007;-75
2022/10/27 03:17:24;;;;;;;11.15;7.47;;;;;;;11.01;100.00;100352.59;1725699;81;21020;-73
2022/10/27 03:19:51;;;;;;;9.05;7.28;;;;;;;10.99;100.00;100352.52;1730591;82;21286;-73
2022/10/27 03:22:19;;;;;;;10.72;6.70;;;;;;;10.96;100.00;100357.04;1730077;81;21603;-75
2022/10/27 03:24:45;;;;;;;10.35;6.83;;;;;;;10.93;100.00;100349.72;1723874;82;21631;-74
2022/10/27 03:27:12;;;;;;;10.35;8.03;;;;;;;10.93;100.00;100359.69;1743035;82;21036;-74
2022/10/27 03:29:38;;;;;;;8.48;6.28;;;;;;;10.92;100.00;100349.45;1742418;82;21004;-74
2022/10/27 03:32:04;;;;;;;7.80;6.95;;;;;;;10.93;100.00;100357.00;1751906;81;21315;-73
2022/10/27 03:34:31;;;;;;;8.58;7.35;;;;;;;10.93;100.00;100361.04;1706756;82;21040;-73
2022/10/27 03:36:58;;;;;;;13.22;7.80;;;;;;;10.93;100.00;100363.17;1714423;81;21037;-75
2022/10/27 03:39:25;;;;;;;7.28;6.55;;;;;;;10.93;100.00;100360.48;1706585;82;21064;-74
2022/10/27 03:41:51;;;;;;;11.08;6.60;;;;;;;10.91;100.00;100358.57;1691210;83;21118;-72
2022/10/27 03:44:17;;;;;;;10.93;6.25;;;;;;;10.90;100.00;100359.62;1699802;81;21222;-74
2022/10/27 03:46:44;;;;;;;8.03;7.22;;;;;;;10.90;100.00;100366.88;1727686;81;21588;-73
2022/10/27 03:49:12;;;;;;;7.30;6.62;;;;;;;10.89;100.00;100359.32;1751571;81;20956;-71
2022/10/27 03:51:39;;;;;;;12.13;6.95;;;;;;;10.87;100.00;100363.31;1725900;81;21488;-71
2022/10/27 03:54:06;;;;;;;11.20;7.17;;;;;;;10.90;100.00;100372.25;1700312;81;21086;-73
2022/10/27 03:56:32;;;;;;;6.80;6.17;;;;;;;10.92;100.00;100364.25;1721321;83;21248;-72
2022/10/27 03:58:59;;;;;;;9.98;7.25;;;;;;;10.92;100.00;100372.33;1720786;81;21018;-73
2022/10/27 04:01:26;;;;;;;8.48;6.62;;;;;;;10.91;100.00;100378.75;1744019;82;20936;-73
2022/10/27 04:03:52;;;;;;;7.83;6.70;;;;;;;10.88;100.00;100372.51;1731132;81;20984;-73
2022/10/27 04:06:19;;;;;;;11.55;7.20;;;;;;;10.86;100.00;100378.64;1742189;81;21148;-73
2022/10/27 04:08:46;;;;;;;9.30;6.55;;;;;;;10.85;100.00;100368.10;1751205;81;21082;-72
2022/10/27 04:11:12;;;;;;;7.75;6.45;;;;;;;10.86;100.00;100379.16;1744873;82;21254;-72
2022/10/27 04:13:42;;;;;;;7.80;7.00;;;;;;;10.86;100.00;100380.51;1748279;81;20939;-73
2022/10/27 04:16:08;;;;;;;9.70;6.03;;;;;;;10.85;100.00;100377.52;1719293;82;21028;-72
2022/10/27 04:18:35;;;;;;;11.48;6.05;;;;;;;10.85;100.00;100386.94;1744863;82;21103;-71
2022/10/27 04:21:04;;;;;;;6.50;6.00;;;;;;;10.87;100.00;100384.32;1739560;81;21183;-71
2022/10/27 04:23:31;;;;;;;10.00;6.97;;;;;;;10.89;100.00;100398.86;1750760;81;21088;-73
2022/10/27 04:25:59;;;;;;;8.10;7.30;;;;;;;10.89;100.00;100394.30;1742743;82;21044;-73
2022/10/27 04:28:26;;;;;;;7.53;6.65;;;;;;;10.87;100.00;100406.37;1751475;81;21071;-71
2022/10/27 04:30:54;;;;;;;11.33;7.20;;;;;;;10.88;100.00;100395.91;1722275;82;20976;-71
2022/10/27 04:33:22;;;;;;;12.47;7.15;;;;;;;10.87;100.00;100390.23;1725520;81;21769;-72
2022/10/27 04:35:49;;;;;;;7.60;5.90;;;;;;;10.87;100.00;100403.16;1700881;82;21011;-72
2022/10/27 04:38:16;;;;;;;14.03;7.95;;;;;;;10.88;100.00;100401.30;1699891;84;20944;-73
2022/10/27 04:40:43;;;;;;;11.00;7.00;;;;;;;10.89;100.00;100405.59;1700966;83;21305;-72
2022/10/27 04:43:10;;;;;;;9.15;7.12;;;;;;;10.90;100.00;100397.82;1741567;81;21103;-73
2022/10/27 04:45:37;;;;;;;6.85;6.15;;;;;;;10.90;100.00;100402.68;1748829;81;21114;-72
2022/10/27 04:48:04;;;;;;;8.98;6.58;;;;;;;10.93;100.00;100405.45;1750096;82;20984;-74
2022/10/27 04:50:30;;;;;;;9.28;7.28;;;;;;;10.96;100.00;100401.45;1722561;82;21076;-73
2022/10/27 04:53:00;;;;;;;13.00;6.90;;;;;;;10.97;100.00;100409.82;1749137;81;21095;-72
2022/10/27 04:55:29;;;;;;;10.13;7.20;;;;;;;10.98;100.00;100408.78;1766459;80;20969;-75
2022/10/27 04:57:55;;;;;;;12.90;8.28;;;;;;;10.99;100.00;100419.29;1752036;81;22149;-73
2022/10/27 05:00:22;;;;;;;11.63;8.63;;;;;;;10.99;100.00;100415.25;1752089;81;21035;-72
2022/10/27 05:02:57;;;;;;;17.20;8.05;;;;;;;11.02;100.00;100428.26;1724572;81;21102;-75
2022/10/27 05:05:25;;;;;;;9.83;7.95;;;;;;;11.05;100.00;100417.53;1735688;80;21016;-76
2022/10/27 05:07:54;;;;;;;10.93;8.15;;;;;;;11.05;100.00;100425.61;1750284;80;21038;-74
2022/10/27 05:10:22;;;;;;;9.83;7.40;;;;;;;11.06;100.00;100432.64;1751434;81;21689;-75
2022/10/27 13:33:38;;;;;;;6.22;4.37;;;;;;;12.74;86.61;100682.67;1779856;79;33637;-72
2022/10/27 13:36:22;;;;;;;7.25;3.80;;;;;;;12.77;86.13;100692.98;1701618;83;21053;-70
2022/10/27 13:38:49;;;;;;;5.23;4.07;;;;;;;12.83;85.39;100681.76;1689205;83;21158;-67
2022/10/27 13:41:51;;;;;;;4.72;3.85;;;;;;;12.86;84.79;100697.47;1690346;83;20969;-76
2022/10/27 13:44:29;;;;;;;8.38;4.30;;;;;;;12.90;84.21;100689.20;1695328;82;21005;-71
2022/10/27 13:47:09;;;;;;;5.78;3.98;;;;;;;12.94;83.98;100693.88;1725121;81;20995;-69
2022/10/27 13:49:49;;;;;;;4.45;4.03;;;;;;;12.98;83.68;100696.38;1722626;81;21041;-73
2022/10/27 13:52:24;;;;;;;5.58;3.52;;;;;;;12.98;82.58;100690.98;1704972;84;21144;-69
2022/10/27 13:55:04;;;;;;;7.72;3.20;;;;;;;12.97;82.32;100698.78;1704900;83;22368;-73
2022/10/27 13:58:10;;;;;;;6.47;3.62;;;;;;;12.96;81.72;100703.06;1723274;81;21033;-68
2022/10/27 14:01:22;;;;;;;3.50;3.20;;;;;;;12.96;81.18;100696.32;1703308;83;20954;-70
2022/10/27 14:04:26;;;;;;;3.92;3.50;;;;;;;12.95;81.02;100697.41;1701655;84;21077;-73
2022/10/27 14:07:03;;;;;;;6.70;3.33;;;;;;;12.96;80.92;100699.02;1696257;82;21189;-72
2022/10/27 14:09:44;;;;;;;6.40;4.45;;;;;;;12.92;80.49;100704.09;1680374;84;20959;-70
2022/10/27 14:12:34;;;;;;;4.10;3.40;;;;;;;12.91;80.52;100700.27;1705467;82;21066;-68
2022/10/27 14:15:06;;;;;;;5.03;2.92;;;;;;;12.91;80.58;100702.44;1704685;84;21065;-70
2022/10/27 14:17:33;;;;;;;7.33;3.90;;;;;;;12.90;80.11;100696.74;1709304;82;21633;-68
2022/10/27 14:20:04;;;;;;;4.10;3.35;;;;;;;12.92;80.40;100700.56;1706057;82;21247;-68
2022/10/27 14:22:40;;;;;;;5.33;3.62;;;;;;;12.90;80.18;100701.36;1724778;82;21053;-71
2022/10/27 14:25:23;;;;;;;6.85;4.15;;;;;;;12.88;80.28;100699.41;1714983;82;20974;-71
2022/10/27 14:28:05;;;;;;;5.50;3.65;;;;;;;12.89;80.50;100704.58;1723834;82;21565;-73
2022/10/27 14:30:33;;;;;;;;;;;;;;;12.87;80.48;100709.39;1733376;82;22203;-74
2022/10/27 14:33:24;;;;;;;5.15;4.12;;;;;;;12.85;80.58;100706.66;1747336;81;21110;-76
2022/10/27 14:36:19;;;;;;;4.15;3.75;;;;;;;12.84;80.74;100705.83;1766420;80;20973;-73
2022/10/27 14:38:52;;;;;;;6.05;3.87;;;;;;;12.83;80.95;100709.58;1684559;81;21196;-73
2022/10/27 14:41:23;;;;;;;6.72;3.98;;;;;;;12.85;81.21;100713.41;1769385;81;21006;-72
2022/10/27 14:43:53;;;;;;;5.67;3.92;;;;;;;12.85;81.23;100714.75;1769047;81;21605;-69
2022/10/27 14:46:22;;;;;;;7.78;5.30;;;;;;;12.82;81.17;100705.77;1769479;81;21238;-76
2022/10/27 14:49:03;;;;;;;5.90;3.98;;;;;;;12.77;81.37;100709.18;1769121;81;21690;-76
2022/10/27 14:51:33;;;;;;;5.58;3.60;;;;;;;12.75;81.63;100718.06;1766341;81;21046;-74
2022/10/27 14:53:59;;;;;;;4.42;4.03;;;;;;;12.75;81.73;100718.59;1768610;80;21065;-76
2022/10/27 14:56:28;;;;;;;5.00;3.70;;;;;;;12.74;81.87;100720.47;1764171;81;21046;-71
2022/10/27 14:58:57;;;;;;;4.55;3.47;;;;;;;12.73;81.93;100723.39;1763081;81;21540;-72
2022/10/27 15:01:29;;;;;;;6.10;4.20;;;;;;;12.73;82.06;100721.52;1769899;81;20955;-74
2022/10/27 15:03:57;;;;;;;6.25;3.75;;;;;;;12.74;82.20;100727.22;1757636;81;21507;-73
2022/10/27 15:06:25;;;;;;;6.08;4.22;;;;;;;12.73;82.23;100729.63;1769891;81;21484;-71
2022/10/27 15:08:52;;;;;;;6.35;4.72;;;;;;;12.71;82.24;100737.12;1769543;81;21040;-70
2022/10/27 15:11:22;;;;;;;5.92;4.40;;;;;;;12.67;82.36;100734.61;1769520;81;21319;-74
2022/10/27 15:13:52;;;;;;;7.67;4.62;;;;;;;12.67;82.66;100734.61;1759810;81;21144;-71
2022/10/27 15:16:24;;;;;;;10.95;5.30;;;;;;;12.66;82.87;100739.74;1769082;79;21574;-70
2022/10/27 15:18:51;;;;;;;6.53;5.37;;;;;;;12.68;82.84;100736.26;1769286;81;20953;-71
2022/10/27 15:21:23;;;;;;;5.90;4.72;;;;;;;12.67;82.75;100741.36;1743086;81;21043;-70
2022/10/27 15:23:54;;;;;;;6.12;5.03;;;;;;;12.64;82.89;100737.27;1759990;81;21864;-70
2022/10/27 15:26:25;;;;;;;5.40;4.62;;;;;;;12.63;83.04;100735.63;1739003;82;20994;-72
2022/10/27 15:28:52;;;;;;;6.85;5.10;;;;;;;12.62;83.06;100739.38;1763191;81;22235;-70
2022/10/27 15:31:19;;;;;;;5.75;4.20;;;;;;;12.64;83.08;100742.67;1769669;81;21594;-70
2022/10/27 15:33:49;;;;;;;9.78;5.25;;;;;;;12.65;82.90;100751.06;1745909;81;21050;-71
2022/10/27 15:36:23;;;;;;;7.22;5.45;;;;;;;12.65;82.80;100742.97;1740482;81;21010;-69
2022/10/27 15:38:50;;;;;;;8.00;4.37;;;;;;;12.65;82.79;100748.37;1769275;81;21064;-73
2022/10/27 15:41:26;;;;;;;5.60;4.58;;;;;;;12.64;82.86;100746.72;1769032;81;21616;-73
2022/10/27 15:44:22;;;;;;;7.45;4.22;;;;;;;12.63;82.92;100752.34;1768774;81;21047;-71
2022/10/27 15:46:48;;;;;;;5.65;4.00;;;;;;;12.63;82.92;100757.22;1769212;81;21054;-75
2022/10/27 15:49:27;;;;;;;5.40;4.72;;;;;;;12.65;82.99;100742.14;1764159;81;21130;-72
2022/10/27 15:52:01;;;;;;;7.50;4.50;;;;;;;12.66;82.93;100753.23;1769022;81;20888;-71
2022/10/27 15:54:33;;;;;;;5.60;4.45;;;;;;;12.67;82.91;100750.81;1769984;81;21021;-75
2022/10/27 15:57:01;;;;;;;6.62;4.78;;;;;;;12.68;82.86;100747.88;1769582;81;21024;-75
2022/10/27 15:59:31;;;;;;;6.30;5.42;;;;;;;12.68;82.90;100759.20;1769391;81;20983;-75
2022/10/27 16:02:22;;;;;;;6.15;4.75;;;;;;;12.65;82.95;100752.42;1765731;81;21232;-73
2022/10/27 16:04:48;;;;;;;6.50;5.20;;;;;;;12.65;83.03;100754.30;1727401;81;21074;-71
2022/10/27 16:07:22;;;;;;;9.50;5.78;;;;;;;12.65;83.21;100754.30;1714247;82;20998;-70
2022/10/27 16:09:49;;;;;;;5.53;4.70;;;;;;;12.65;83.30;100751.06;1756607;81;21015;-73
2022/10/27 16:12:40;;;;;;;9.70;6.08;;;;;;;12.66;83.17;100762.13;1767153;81;21522;-71
2022/10/27 16:15:20;;;;;;;6.50;5.37;;;;;;;12.67;83.11;100760.25;1691675;81;21080;-71
2022/10/27 16:17:53;;;;;;;6.67;5.62;;;;;;;12.64;83.12;100762.09;1769295;81;20983;-72
2022/10/27 16:20:27;;;;;;;6.60;5.33;;;;;;;12.60;83.23;100763.10;1769657;81;21542;-72
2022/10/27 16:22:55;;;;;;;5.60;5.00;;;;;;;12.60;83.41;100770.38;1768962;81;21055;-69
2022/10/27 16:25:28;;;;;;;9.95;5.67;;;;;;;12.59;83.53;100762.80;1768833;81;21034;-71
2022/10/27 16:27:54;;;;;;;7.00;5.40;;;;;;;12.60;83.54;100763.10;1769655;81;21109;-70
2022/10/27 16:30:22;;;;;;;7.75;5.20;;;;;;;12.59;83.57;100774.12;1743682;81;20966;-69
2022/10/27 16:33:01;;;;;;;7.85;5.85;;;;;;;12.59;83.65;100780.88;1768848;81;21033;-69
2022/10/27 16:35:30;;;;;;;7.97;7.17;;;;;;;12.58;83.71;100773.83;1767353;80;21118;-71
2022/10/27 16:37:59;;;;;;;11.43;5.85;;;;;;;12.57;83.84;100775.70;1756406;81;21027;-74
2022/10/27 16:40:26;;;;;;;11.68;6.92;;;;;;;12.57;83.94;100776.22;1766405;81;21157;-74
2022/10/27 16:42:57;;;;;;;9.28;5.67;;;;;;;12.56;83.94;100775.95;1766936;81;20996;-76
2022/10/27 16:45:25;;;;;;;11.53;5.72;;;;;;;12.57;84.01;100779.75;1767978;81;20921;-72
2022/10/27 16:47:53;;;;;;;8.30;6.22;;;;;;;12.59;84.12;100781.69;1768631;81;21062;-70
2022/10/27 16:50:20;;;;;;;8.68;6.33;;;;;;;12.59;84.14;100773.59;1753719;81;20947;-72
2022/10/27 16:52:53;;;;;;;10.88;6.12;;;;;;;12.59;84.06;100774.95;1769371;81;21232;-68
2022/10/27 16:55:21;;;;;;;12.58;6.53;;;;;;;12.57;84.05;100782.44;1769986;81;20999;-68
2022/10/27 16:57:48;;;;;;;12.73;8.68;;;;;;;12.55;84.15;100777.00;1763024;81;21525;-71
2022/10/27 17:00:16;;;;;;;8.65;6.65;;;;;;;12.53;84.37;100769.66;1769365;81;20995;-75
2022/10/27 17:02:43;;;;;;;12.80;6.53;;;;;;;12.54;84.58;100784.80;1752907;81;20943;-70
2022/10/27 17:05:09;;;;;;;10.68;6.92;;;;;;;12.56;84.72;100778.66;1769269;81;21107;-73
2022/10/27 17:07:36;;;;;;;9.38;6.20;;;;;;;12.56;84.69;100777.30;1763755;81;20979;-76
2022/10/27 17:10:03;;;;;;;6.78;5.83;;;;;;;12.57;84.77;100782.97;1755512;81;21137;-69
2022/10/27 17:12:30;;;;;;;9.58;6.30;;;;;;;12.55;84.79;100789.97;1738925;82;21708;-76
2022/10/27 17:14:56;;;;;;;11.48;5.45;;;;;;;12.52;85.01;100784.20;1739275;82;21053;-69
2022/10/27 17:17:24;;;;;;;6.25;5.55;;;;;;;12.49;85.34;100792.25;1752806;79;20936;-70
2022/10/27 17:19:51;;;;;;;10.60;6.20;;;;;;;12.49;85.73;100792.25;1765462;80;20954;-69
2022/10/27 17:22:18;;;;;;;8.78;6.55;;;;;;;12.49;85.99;100798.17;1769411;81;21019;-70
2022/10/27 17:24:44;;;;;;;11.48;7.12;;;;;;;12.50;86.14;100789.86;1768356;81;21070;-68
2022/10/27 17:27:11;;;;;;;9.83;7.28;;;;;;;12.51;86.26;100796.08;1761928;81;21062;-69
2022/10/27 17:29:40;;;;;;;10.50;7.62;;;;;;;12.49;86.53;100793.61;1766153;81;21324;-69
2022/10/27 17:32:06;;;;;;;10.55;8.03;;;;;;;12.47;86.88;100800.31;1768679;81;21013;-66
2022/10/27 17:34:35;;;;;;;10.20;7.15;;;;;;;12.44;87.15;100798.89;1735849;81;20963;-68
2022/10/27 17:37:02;;;;;;;11.48;7.12;;;;;;;12.44;87.47;100800.76;1733995;82;21047;-71
2022/10/27 17:39:29;;;;;;;8.33;6.87;;;;;;;12.42;87.72;100804.23;1723460;81;21033;-74
2022/10/27 17:41:55;;;;;;;10.78;7.05;;;;;;;12.41;88.03;100820.13;1734239;82;21209;-72
2022/10/27 17:44:22;;;;;;;9.85;6.83;;;;;;;12.40;88.43;100809.86;1698345;82;21570;-69
2022/10/27 17:46:49;;;;;;;11.80;7.30;;;;;;;12.40;88.62;100806.34;1679326;82;21038;-69
2022/10/27 17:49:16;;;;;;;7.85;6.35;;;;;;;12.40;88.72;100804.46;1734119;82;21004;-70
2022/10/27 17:51:42;;;;;;;7.50;6.40;;;;;;;12.39;88.76;100800.64;1734661;81;21003;-70
2022/10/27 17:54:12;;;;;;;7.60;6.33;;;;;;;12.34;88.89;100802.69;1734625;82;20955;-71
2022/10/27 17:56:40;;;;;;;8.33;5.97;;;;;;;12.31;89.03;100801.82;1734511;82;20961;-76
2022/10/27 17:59:12;;;;;;;7.85;6.12;;;;;;;12.32;89.35;100806.70;1732896;82;21558;-73
2022/10/27 18:01:38;;;;;;;8.63;6.60;;;;;;;12.33;89.49;100801.56;1727098;82;21015;-71
2022/10/27 18:04:07;;;;;;;8.90;6.20;;;;;;;12.36;89.41;100798.42;1734447;82;21099;-68
2022/10/27 18:06:34;;;;;;;8.63;6.50;;;;;;;12.36;89.33;100803.30;1734579;82;20996;-77
2022/10/27 18:09:01;;;;;;;5.67;4.87;;;;;;;12.36;89.26;100803.81;1738379;82;21000;-75
2022/10/27 18:11:30;;;;;;;6.15;5.53;;;;;;;12.34;89.33;100800.00;1730752;82;21031;-78
2022/10/27 18:14:06;;;;;;;5.80;5.17;;;;;;;12.32;89.56;100805.34;1706293;82;21328;-72
2022/10/27 18:16:35;;;;;;;10.23;6.08;;;;;;;12.31;89.71;100810.44;1734192;82;21268;-73
2022/10/27 18:19:05;;;;;;;7.70;6.17;;;;;;;12.30;89.70;100802.87;1734561;82;21254;-71
2022/10/27 18:21:34;;;;;;;7.00;6.30;;;;;;;12.31;89.80;100799.13;1733811;81;21690;-73
2022/10/27 18:24:01;;;;;;;10.30;5.92;;;;;;;12.33;89.76;100809.14;1734579;82;21008;-71
2022/10/27 18:26:29;;;;;;;6.78;5.60;;;;;;;12.32;89.76;100812.09;1728457;82;21055;-72
2022/10/27 18:28:56;;;;;;;8.10;6.35;;;;;;;12.30;89.81;100810.97;1734064;82;21543;-77
2022/10/27 18:31:26;;;;;;;8.30;5.25;;;;;;;12.28;89.79;100806.31;1733121;82;21873;-73
2022/10/27 18:33:53;;;;;;;7.85;6.87;;;;;;;12.26;89.89;100808.97;1734630;81;21024;-68
2022/10/27 18:36:22;;;;;;;7.55;6.00;;;;;;;12.26;89.98;100815.72;1735369;82;21511;-69
2022/10/27 18:38:54;;;;;;;7.10;6.03;;;;;;;12.26;89.98;100815.72;1735141;82;20994;-70
2022/10/27 18:41:22;;;;;;;8.75;7.15;;;;;;;12.25;90.11;100817.59;1734917;82;21073;-69
2022/10/27 18:43:50;;;;;;;7.05;6.40;;;;;;;12.26;89.99;100826.50;1744638;81;21582;-70
2022/10/27 18:46:18;;;;;;;8.05;6.03;;;;;;;12.25;89.99;100843.21;1747902;81;20919;-69
2022/10/27 18:48:52;;;;;;;7.60;6.78;;;;;;;12.22;90.03;100844.52;1751914;81;21134;-69
2022/10/27 18:51:20;;;;;;;7.37;6.50;;;;;;;12.20;90.13;100838.52;1753648;80;21054;-70
2022/10/27 18:53:53;;;;;;;7.55;6.37;;;;;;;12.18;90.32;100842.52;1753400;81;21113;-69
2022/10/27 18:56:20;;;;;;;6.92;5.92;;;;;;;12.17;90.46;100857.87;1661466;84;21733;-69
2022/10/27 18:58:54;;;;;;;7.00;6.30;;;;;;;12.18;90.55;100859.49;1723193;82;20931;-68
2022/10/27 19:01:20;;;;;;;6.75;5.80;;;;;;;12.18;90.57;100856.80;1715203;82;21668;-67
2022/10/27 19:03:58;;;;;;;7.10;6.40;;;;;;;12.18;90.56;100851.40;1735429;82;21016;-68
2022/10/27 19:06:25;;;;;;;8.70;6.10;;;;;;;12.15;90.47;100857.27;1717984;81;21605;-67
2022/10/27 19:08:53;;;;;;;8.65;6.03;;;;;;;12.13;90.53;100866.66;1740804;80;21055;-69
2022/10/27 19:11:21;;;;;;;6.55;5.33;;;;;;;12.11;90.63;100861.48;1733896;81;21569;-67
2022/10/27 19:13:50;;;;;;;6.62;5.78;;;;;;;12.13;90.69;100870.15;1736686;81;20958;-68
2022/10/27 19:16:18;;;;;;;8.15;7.15;;;;;;;12.14;90.67;100874.50;1735170;82;21032;-69
2022/10/27 19:18:46;;;;;;;6.12;5.53;;;;;;;12.14;90.65;100863.70;1735117;81;21573;-67
2022/10/27 19:21:16;;;;;;;6.10;5.42;;;;;;;12.17;90.47;100874.05;1743267;81;22028;-69
2022/10/27 19:23:45;;;;;;;7.40;5.67;;;;;;;12.14;90.35;100870.97;1753185;81;21008;-67
2022/10/27 19:26:19;;;;;;;9.55;6.67;;;;;;;12.11;90.44;100876.84;1753189;81;21038;-71
2022/10/27 19:28:49;;;;;;;10.03;6.22;;;;;;;12.08;90.67;100879.48;1753357;81;21530;-71
2022/10/27 19:31:19;;;;;;;10.60;6.22;;;;;;;12.09;90.82;100878.94;1753484;81;21029;-67
2022/10/27 19:33:47;;;;;;;7.62;6.92;;;;;;;12.11;90.79;100881.71;1757539;81;21142;-68
2022/10/27 19:36:21;;;;;;;12.33;6.78;;;;;;;12.13;90.68;100884.19;1767474;81;20970;-68
2022/10/27 19:38:48;;;;;;;9.25;6.28;;;;;;;12.12;90.70;100880.66;1764741;80;21009;-68
2022/10/27 19:41:22;;;;;;;12.35;6.37;;;;;;;12.11;90.63;100877.66;1767344;81;21057;-67
2022/10/27 19:43:54;;;;;;;8.98;5.30;;;;;;;12.10;90.77;100881.94;1766612;81;21519;-68
2022/10/27 19:46:17;;;;;;;11.33;5.97;;;;;;;12.07;90.83;100881.88;1766837;81;21152;-68
2022/10/27 19:48:50;;;;;;;8.75;6.53;;;;;;;12.07;90.94;100889.15;1766787;80;20939;-68
2022/10/27 19:51:21;;;;;;;11.63;7.30;;;;;;;12.06;90.93;100885.63;1761931;81;21114;-69
2022/10/27 19:53:49;;;;;;;8.30;6.10;;;;;;;12.06;91.01;100886.97;1764279;80;21000;-68
2022/10/27 19:56:16;;;;;;;7.00;6.25;;;;;;;12.04;91.12;100886.37;1764239;81;20932;-70
2022/10/27 19:58:43;;;;;;;6.87;6.20;;;;;;;12.01;91.24;100881.97;1764226;80;21234;-69